createdAt,value
2022-12-28T00:00:00.726Z,0.1
2022-12-28T00:01:00.715Z,0.2
2022-12-28T00:02:00.767Z,0.2
2022-12-28T00:03:00.741Z,0.2
2022-12-28T00:04:00.717Z,0.2
2022-12-28T00:05:00.703Z,0.2
2022-12-28T00:06:00.691Z,0.2
2022-12-28T00:07:00.722Z,0.2
2022-12-28T00:08:00.699Z,0.2
2022-12-28T00:09:00.720Z,0.2
2022-12-28T00:10:00.724Z,0.2
2022-12-28T00:11:08.799Z,0.2
2022-12-28T00:12:00.720Z,0.2
2022-12-28T00:13:00.722Z,0.2
2022-12-28T00:14:00.898Z,0.3
2022-12-28T00:15:00.695Z,0.3
2022-12-28T00:16:00.728Z,0.3
2022-12-28T00:17:00.723Z,0.3
2022-12-28T00:18:00.708Z,0.3
2022-12-28T00:19:00.795Z,0.3
2022-12-28T00:20:00.709Z,0.4
2022-12-28T00:21:00.729Z,0.4
2022-12-28T00:22:00.724Z,0.4
2022-12-28T00:23:00.724Z,0.4
2022-12-28T00:24:00.736Z,0.4
2022-12-28T00:25:00.737Z,0.4
2022-12-28T00:26:00.718Z,0.4
2022-12-28T00:27:00.742Z,0.5
2022-12-28T00:28:00.737Z,0.4
2022-12-28T00:29:04.760Z,0.5
2022-12-28T00:30:00.769Z,0.6
2022-12-28T00:31:00.721Z,0.6
2022-12-28T00:32:00.819Z,0.6
2022-12-28T00:33:00.729Z,0.8
2022-12-28T00:34:00.753Z,0.8
2022-12-28T00:35:00.737Z,0.8
2022-12-28T00:36:00.725Z,0.9
2022-12-28T00:37:09.269Z,0.9
2022-12-28T00:38:00.733Z,0.9
2022-12-28T00:39:00.750Z,0.9
2022-12-28T00:40:00.743Z,1
2022-12-28T00:41:00.732Z,1
2022-12-28T00:42:00.769Z,1.1
2022-12-28T00:43:00.765Z,1.2
2022-12-28T00:44:00.741Z,1.2
2022-12-28T00:45:00.763Z,1.2
2022-12-28T00:46:00.855Z,1.3
2022-12-28T00:47:00.758Z,1.3
2022-12-28T00:48:00.760Z,1.4
2022-12-28T00:49:00.769Z,1.4
2022-12-28T00:50:00.750Z,1.3
2022-12-28T00:51:00.743Z,1.4
2022-12-28T00:52:00.771Z,1.4
2022-12-28T00:53:00.769Z,1.4
2022-12-28T00:54:00.755Z,1.4
2022-12-28T00:55:00.788Z,1.5
2022-12-28T00:56:00.766Z,1.6
2022-12-28T00:57:00.753Z,1.6
2022-12-28T00:58:00.777Z,1.7
2022-12-28T00:59:00.785Z,1.7
2022-12-28T01:00:00.803Z,1.8
2022-12-28T01:01:00.973Z,1.8
2022-12-28T01:02:00.917Z,1.8
2022-12-28T01:03:00.839Z,1.9
2022-12-28T01:04:00.765Z,1.9
2022-12-28T01:05:00.766Z,1.9
2022-12-28T01:06:00.754Z,2
2022-12-28T01:07:00.774Z,2.1
2022-12-28T01:08:00.774Z,2.1
2022-12-28T01:09:00.765Z,2.1
2022-12-28T01:10:00.768Z,2.2
2022-12-28T01:11:00.787Z,2.2
2022-12-28T01:12:00.810Z,2.3
2022-12-28T01:13:00.792Z,2.3
2022-12-28T01:14:00.865Z,2.3
2022-12-28T01:15:00.805Z,2.3
2022-12-28T01:16:00.807Z,2.3
2022-12-28T01:17:00.806Z,2.3
2022-12-28T01:18:00.778Z,2.3
2022-12-28T01:19:00.807Z,2.3
2022-12-28T01:20:00.779Z,2.3
2022-12-28T01:21:00.767Z,2.3
2022-12-28T01:22:00.767Z,2.3
2022-12-28T01:23:00.796Z,2.4
2022-12-28T01:24:00.786Z,2.4
2022-12-28T01:25:00.770Z,2.4
2022-12-28T01:26:00.799Z,2.4
2022-12-28T01:27:00.777Z,2.4
2022-12-28T01:28:00.800Z,2.5
2022-12-28T01:29:00.802Z,2.5
2022-12-28T01:30:00.809Z,2.6
2022-12-28T01:31:00.781Z,2.6
2022-12-28T01:32:00.801Z,2.6
2022-12-28T01:33:00.832Z,2.6
2022-12-28T01:34:00.799Z,2.6
2022-12-28T01:35:00.781Z,2.6
2022-12-28T01:36:00.778Z,2.7
2022-12-28T01:37:00.801Z,2.7
2022-12-28T01:38:00.810Z,2.7
2022-12-28T01:39:00.791Z,2.7
2022-12-28T01:40:00.808Z,2.7
2022-12-28T01:41:00.784Z,2.7
2022-12-28T01:42:00.811Z,2.7
2022-12-28T01:43:00.811Z,2.8
2022-12-28T01:44:00.802Z,2.8
2022-12-28T01:45:00.802Z,2.8
2022-12-28T01:46:00.817Z,2.8
2022-12-28T01:47:00.820Z,2.8
2022-12-28T01:48:00.812Z,2.8
2022-12-28T01:49:00.806Z,2.8
2022-12-28T01:50:00.844Z,2.8
2022-12-28T01:51:00.800Z,2.8
2022-12-28T01:52:00.832Z,2.8
2022-12-28T01:53:00.806Z,2.9
2022-12-28T01:54:00.817Z,2.9
2022-12-28T01:55:00.839Z,2.9
2022-12-28T01:56:00.828Z,2.9
2022-12-28T01:57:00.834Z,2.9
2022-12-28T01:58:00.830Z,2.9
2022-12-28T01:59:00.830Z,2.9
2022-12-28T02:00:00.921Z,2.9
2022-12-28T02:01:00.995Z,2.9
2022-12-28T02:02:01.124Z,2.9
2022-12-28T02:03:00.838Z,2.9
2022-12-28T02:04:00.843Z,2.9
2022-12-28T02:05:00.851Z,2.9
2022-12-28T02:06:00.823Z,3
2022-12-28T02:07:01.739Z,3
2022-12-28T02:08:00.816Z,3
2022-12-28T02:09:00.844Z,3
2022-12-28T02:10:44.188Z,3
2022-12-28T02:11:00.824Z,3
2022-12-28T02:12:00.849Z,3.1
2022-12-28T02:13:00.930Z,3.1
2022-12-28T02:14:00.822Z,3.1
2022-12-28T02:15:00.837Z,3.1
2022-12-28T02:16:00.820Z,3.1
2022-12-28T02:17:00.881Z,3.1
2022-12-28T02:18:00.853Z,3.1
2022-12-28T02:19:00.826Z,3.1
2022-12-28T02:20:00.795Z,3.1
2022-12-28T02:21:00.758Z,3.2
2022-12-28T02:22:00.753Z,3.2
2022-12-28T02:23:00.725Z,3.2
2022-12-28T02:24:00.676Z,3.2
2022-12-28T02:25:12.910Z,3.2
2022-12-28T02:26:00.628Z,3.2
2022-12-28T02:27:00.582Z,3.2
2022-12-28T02:28:00.601Z,3.2
2022-12-28T02:29:00.564Z,3.2
2022-12-28T02:30:00.545Z,3.2
2022-12-28T02:31:00.493Z,3.2
2022-12-28T02:32:00.493Z,3.2
2022-12-28T02:33:00.486Z,3.2
2022-12-28T02:34:00.468Z,3.2
2022-12-28T02:35:00.478Z,3.2
2022-12-28T02:36:00.489Z,3.2
2022-12-28T02:37:00.498Z,3.2
2022-12-28T02:38:00.491Z,3.2
2022-12-28T02:39:00.477Z,3.2
2022-12-28T02:40:00.526Z,3.2
2022-12-28T02:41:00.519Z,3.2
2022-12-28T02:42:00.513Z,3.2
2022-12-28T02:43:00.509Z,3.2
2022-12-28T02:44:00.484Z,3.2
2022-12-28T02:45:00.487Z,3.2
2022-12-28T02:46:00.586Z,3.2
2022-12-28T02:47:00.509Z,3.2
2022-12-28T02:48:00.508Z,3.2
2022-12-28T02:49:00.486Z,3.3
2022-12-28T02:50:00.506Z,3.3
2022-12-28T02:51:00.487Z,3.3
2022-12-28T02:52:00.515Z,3.3
2022-12-28T02:53:00.509Z,3.3
2022-12-28T02:54:00.489Z,3.3
2022-12-28T02:55:00.522Z,3.3
2022-12-28T02:56:00.518Z,3.3
2022-12-28T02:57:00.526Z,3.3
2022-12-28T02:58:00.560Z,3.3
2022-12-28T02:59:00.503Z,3.3
2022-12-28T03:00:01.825Z,3.3
2022-12-28T03:01:02.047Z,3.3
2022-12-28T03:02:01.956Z,3.3
2022-12-28T03:03:01.814Z,3.3
2022-12-28T03:04:01.869Z,3.3
2022-12-28T03:05:01.936Z,3.3
2022-12-28T03:06:01.932Z,3.3
2022-12-28T03:07:01.912Z,3.3
2022-12-28T03:08:01.882Z,3.3
2022-12-28T03:09:01.930Z,3.3
2022-12-28T03:10:01.835Z,3.3
2022-12-28T03:11:01.802Z,3.3
2022-12-28T03:12:01.824Z,3.3
2022-12-28T03:13:01.835Z,3.3
2022-12-28T03:14:01.805Z,3.3
2022-12-28T03:15:01.823Z,3.3
2022-12-28T03:16:01.830Z,3.3
2022-12-28T03:17:02.720Z,3.3
2022-12-28T03:18:01.840Z,3.3
2022-12-28T03:19:01.822Z,3.3
2022-12-28T03:20:01.835Z,3.3
2022-12-28T03:21:01.820Z,3.3
2022-12-28T03:22:01.839Z,3.3
2022-12-28T03:23:01.813Z,3.3
2022-12-28T03:24:01.846Z,3.3
2022-12-28T03:25:01.828Z,3.4
2022-12-28T03:26:01.841Z,3.3
2022-12-28T03:27:01.847Z,3.3
2022-12-28T03:28:01.846Z,3.3
2022-12-28T03:29:01.840Z,3.3
2022-12-28T03:30:01.827Z,3.4
2022-12-28T03:31:01.882Z,3.4
2022-12-28T03:32:01.838Z,3.4
2022-12-28T03:33:01.822Z,3.4
2022-12-28T03:34:01.852Z,3.4
2022-12-28T03:35:01.831Z,3.3
2022-12-28T03:36:01.833Z,3.3
2022-12-28T03:37:01.875Z,3.4
2022-12-28T03:38:01.822Z,3.4
2022-12-28T03:39:01.874Z,3.4
2022-12-28T03:40:01.844Z,3.4
2022-12-28T03:41:01.833Z,3.4
2022-12-28T03:42:01.876Z,3.4
2022-12-28T03:43:01.850Z,3.4
2022-12-28T03:44:01.827Z,3.4
2022-12-28T03:45:01.836Z,3.4
2022-12-28T03:46:01.878Z,3.4
2022-12-28T03:47:01.874Z,3.4
2022-12-28T03:48:01.835Z,3.4
2022-12-28T03:49:01.837Z,3.4
2022-12-28T03:50:01.846Z,3.4
2022-12-28T03:51:01.860Z,3.4
2022-12-28T03:52:01.864Z,3.4
2022-12-28T03:53:01.852Z,3.4
2022-12-28T03:54:01.857Z,3.4
2022-12-28T03:55:01.844Z,3.4
2022-12-28T03:56:02.718Z,3.4
2022-12-28T03:57:01.883Z,3.4
2022-12-28T03:58:01.876Z,3.4
2022-12-28T03:59:01.845Z,3.4
2022-12-28T04:00:01.857Z,3.4
2022-12-28T04:01:01.901Z,3.4
2022-12-28T04:02:02.052Z,3.4
2022-12-28T04:03:01.882Z,3.4
2022-12-28T04:04:01.858Z,3.4
2022-12-28T04:05:01.875Z,3.4
2022-12-28T04:06:01.860Z,3.4
2022-12-28T04:07:01.878Z,3.4
2022-12-28T04:08:01.892Z,3.4
2022-12-28T04:09:01.883Z,3.4
2022-12-28T04:10:01.862Z,3.4
2022-12-28T04:11:01.873Z,3.4
2022-12-28T04:12:01.891Z,3.4
2022-12-28T04:13:01.892Z,3.4
2022-12-28T04:14:06.857Z,3.3
2022-12-28T04:15:01.869Z,3.3
2022-12-28T04:16:01.921Z,3.3
2022-12-28T04:17:01.908Z,3.3
2022-12-28T04:18:01.874Z,3.3
2022-12-28T04:19:01.869Z,3.4
2022-12-28T04:20:01.906Z,3.3
2022-12-28T04:21:01.894Z,3.3
2022-12-28T04:22:01.896Z,3.3
2022-12-28T04:23:01.899Z,3.4
2022-12-28T04:24:01.898Z,3.4
2022-12-28T04:25:01.917Z,3.4
2022-12-28T04:26:01.881Z,3.4
2022-12-28T04:27:01.887Z,3.4
2022-12-28T04:28:01.879Z,3.4
2022-12-28T04:29:01.919Z,3.4
2022-12-28T04:30:01.998Z,3.4
2022-12-28T04:31:01.899Z,3.4
2022-12-28T04:32:01.880Z,3.3
2022-12-28T04:33:01.884Z,3.3
2022-12-28T04:34:01.880Z,3.3
2022-12-28T04:35:01.946Z,3.3
2022-12-28T04:36:01.883Z,3.3
2022-12-28T04:37:01.912Z,3.3
2022-12-28T04:38:01.892Z,3.3
2022-12-28T04:39:01.923Z,3.3
2022-12-28T04:40:01.944Z,3.3
2022-12-28T04:41:01.887Z,3.2
2022-12-28T04:42:01.892Z,3.2
2022-12-28T04:43:01.901Z,3.2
2022-12-28T04:44:01.922Z,3.2
2022-12-28T04:45:01.928Z,3.2
2022-12-28T04:46:01.896Z,3.2
2022-12-28T04:47:01.957Z,3.2
2022-12-28T04:48:01.900Z,3.2
2022-12-28T04:49:01.902Z,3.1
2022-12-28T04:50:01.950Z,3.1
2022-12-28T04:51:01.904Z,3.1
2022-12-28T04:52:01.929Z,3.1
2022-12-28T04:53:01.908Z,3.1
2022-12-28T04:54:01.936Z,3.1
2022-12-28T04:55:01.938Z,3.1
2022-12-28T04:56:01.913Z,3.1
2022-12-28T04:57:01.904Z,3.1
2022-12-28T04:58:01.934Z,3.1
2022-12-28T04:59:01.940Z,3
2022-12-28T05:00:02.048Z,3.1
2022-12-28T05:01:02.027Z,3
2022-12-28T05:02:01.991Z,3.1
2022-12-28T05:03:02.022Z,3.1
2022-12-28T05:04:01.941Z,3.1
2022-12-28T05:05:02.115Z,3.1
2022-12-28T05:06:01.923Z,3.1
2022-12-28T05:07:01.916Z,3.1
2022-12-28T05:08:01.926Z,3.1
2022-12-28T05:09:01.951Z,3.1
2022-12-28T05:10:01.993Z,3.1
2022-12-28T05:11:01.947Z,3.1
2022-12-28T05:12:01.942Z,3.1
2022-12-28T05:13:01.924Z,3.1
2022-12-28T05:14:01.954Z,3.1
2022-12-28T05:15:01.957Z,3.1
2022-12-28T05:16:01.968Z,3.1
2022-12-28T05:17:01.933Z,3.1
2022-12-28T05:18:01.962Z,3.1
2022-12-28T05:19:01.971Z,3.1
2022-12-28T05:20:02.071Z,3.2
2022-12-28T05:21:01.939Z,3.2
2022-12-28T05:22:01.949Z,3.2
2022-12-28T05:23:01.960Z,3.2
2022-12-28T05:24:01.961Z,3.2
2022-12-28T05:25:01.960Z,3.2
2022-12-28T05:26:01.942Z,3.2
2022-12-28T05:27:01.944Z,3.2
2022-12-28T05:28:01.934Z,3.2
2022-12-28T05:29:01.964Z,3.2
2022-12-28T05:30:01.978Z,3.2
2022-12-28T05:31:01.979Z,3.2
2022-12-28T05:32:01.954Z,3.3
2022-12-28T05:33:01.956Z,3.3
2022-12-28T05:34:01.991Z,3.3
2022-12-28T05:35:01.980Z,3.3
2022-12-28T05:36:01.955Z,3.3
2022-12-28T05:37:01.953Z,3.3
2022-12-28T05:38:01.955Z,3.3
2022-12-28T05:39:01.979Z,3.4
2022-12-28T05:40:01.992Z,3.4
2022-12-28T05:41:01.982Z,3.4
2022-12-28T05:42:01.967Z,3.4
2022-12-28T05:43:01.985Z,3.4
2022-12-28T05:44:01.983Z,3.4
2022-12-28T05:45:02.017Z,3.4
2022-12-28T05:46:01.983Z,3.4
2022-12-28T05:47:02.040Z,3.4
2022-12-28T05:48:01.994Z,3.4
2022-12-28T05:49:01.988Z,3.4
2022-12-28T05:50:02.122Z,3.4
2022-12-28T05:51:01.968Z,3.4
2022-12-28T05:52:01.981Z,3.4
2022-12-28T05:53:02.013Z,3.4
2022-12-28T05:54:02.013Z,3.4
2022-12-28T05:55:01.991Z,3.4
2022-12-28T05:56:01.976Z,3.4
2022-12-28T05:57:02.001Z,3.4
2022-12-28T05:58:02.031Z,3.4
2022-12-28T05:59:01.981Z,3.4
2022-12-28T06:00:02.006Z,3.4
2022-12-28T06:01:02.056Z,3.4
2022-12-28T06:02:02.138Z,3.3
2022-12-28T06:03:02.152Z,3.3
2022-12-28T06:04:01.987Z,3.3
2022-12-28T06:05:02.002Z,3.3
2022-12-28T06:06:01.983Z,3.3
2022-12-28T06:07:02.009Z,3.3
2022-12-28T06:08:01.993Z,3.3
2022-12-28T06:09:02.058Z,3.3
2022-12-28T06:10:02.021Z,3.3
2022-12-28T06:11:02.011Z,3.3
2022-12-28T06:12:02.019Z,3.3
2022-12-28T06:13:01.991Z,3.2
2022-12-28T06:14:01.990Z,3.3
2022-12-28T06:15:02.033Z,3.2
2022-12-28T06:16:02.135Z,3.2
2022-12-28T06:17:02.041Z,3.2
2022-12-28T06:18:02.023Z,3.2
2022-12-28T06:19:02.002Z,3.3
2022-12-28T06:20:02.006Z,3.2
2022-12-28T06:21:02.018Z,3.2
2022-12-28T06:22:02.003Z,3.2
2022-12-28T06:23:02.021Z,3.2
2022-12-28T06:24:02.020Z,3.2
2022-12-28T06:25:02.006Z,3.2
2022-12-28T06:26:02.023Z,3.2
2022-12-28T06:27:02.003Z,3.2
2022-12-28T06:28:02.002Z,3.2
2022-12-28T06:29:02.031Z,3.2
2022-12-28T06:30:02.039Z,3.2
2022-12-28T06:31:02.027Z,3.2
2022-12-28T06:32:02.047Z,3.2
2022-12-28T06:33:02.027Z,3.2
2022-12-28T06:34:02.043Z,3.1
2022-12-28T06:35:02.013Z,3.1
2022-12-28T06:36:02.036Z,3.1
2022-12-28T06:37:02.040Z,3.1
2022-12-28T06:38:02.036Z,3.1
2022-12-28T06:39:02.053Z,3.1
2022-12-28T06:40:02.032Z,3.1
2022-12-28T06:41:13.492Z,3.1
2022-12-28T06:42:02.056Z,3.1
2022-12-28T06:43:02.033Z,3.1
2022-12-28T06:44:02.026Z,3
2022-12-28T06:45:02.014Z,3
2022-12-28T06:46:02.069Z,3
2022-12-28T06:47:02.048Z,3
2022-12-28T06:48:02.023Z,3
2022-12-28T06:49:02.024Z,3
2022-12-28T06:50:02.035Z,3
2022-12-28T06:51:02.054Z,3
2022-12-28T06:52:02.035Z,3
2022-12-28T06:53:02.029Z,3
2022-12-28T06:54:02.056Z,2.9
2022-12-28T06:55:02.028Z,3
2022-12-28T06:56:02.057Z,3
2022-12-28T06:57:02.087Z,3
2022-12-28T06:58:02.037Z,3
2022-12-28T06:59:03.186Z,2.9
2022-12-28T07:00:02.104Z,2.9
2022-12-28T07:01:02.186Z,3
2022-12-28T07:02:02.324Z,3
2022-12-28T07:03:02.115Z,2.9
2022-12-28T07:04:02.232Z,3
2022-12-28T07:05:02.109Z,3
2022-12-28T07:06:02.167Z,3
2022-12-28T07:07:02.160Z,2.9
2022-12-28T07:08:04.205Z,2.9
2022-12-28T07:09:02.167Z,2.9
2022-12-28T07:10:02.149Z,2.9
2022-12-28T07:11:02.153Z,2.9
2022-12-28T07:12:02.129Z,2.9
2022-12-28T07:13:02.132Z,2.9
2022-12-28T07:14:02.115Z,2.9
2022-12-28T07:15:02.166Z,2.9
2022-12-28T07:16:02.097Z,3
2022-12-28T07:17:02.132Z,3
2022-12-28T07:18:02.072Z,3
2022-12-28T07:19:02.155Z,3
2022-12-28T07:20:02.061Z,3
2022-12-28T07:21:02.167Z,3
2022-12-28T07:22:02.071Z,3.1
2022-12-28T07:23:02.058Z,3.1
2022-12-28T07:24:02.241Z,3.1
2022-12-28T07:25:02.066Z,3
2022-12-28T07:26:02.105Z,3.1
2022-12-28T07:27:02.089Z,3.1
2022-12-28T07:28:02.075Z,3.1
2022-12-28T07:29:02.062Z,3.1
2022-12-28T07:30:02.084Z,3.1
2022-12-28T07:31:02.199Z,3.1
2022-12-28T07:32:02.090Z,3.1
2022-12-28T07:33:02.113Z,3.1
2022-12-28T07:34:02.086Z,3.1
2022-12-28T07:35:02.069Z,3.1
2022-12-28T07:36:02.080Z,3.1
2022-12-28T07:37:02.095Z,3.1
2022-12-28T07:38:02.083Z,3.1
2022-12-28T07:39:02.082Z,3.1
2022-12-28T07:40:02.083Z,3.1
2022-12-28T07:41:02.087Z,3.2
2022-12-28T07:42:02.108Z,3.2
2022-12-28T07:43:02.077Z,3.2
2022-12-28T07:44:02.083Z,3.2
2022-12-28T07:45:02.075Z,3.2
2022-12-28T07:46:02.213Z,3.2
2022-12-28T07:47:02.115Z,3.2
2022-12-28T07:48:02.141Z,3.2
2022-12-28T07:49:02.138Z,3.2
2022-12-28T07:50:02.081Z,3.2
2022-12-28T07:51:02.102Z,3.2
2022-12-28T07:52:02.107Z,3.2
2022-12-28T07:53:02.083Z,3.2
2022-12-28T07:54:02.110Z,3.3
2022-12-28T07:55:02.100Z,3.2
2022-12-28T07:56:02.084Z,3.3
2022-12-28T07:57:02.122Z,3.2
2022-12-28T07:58:02.089Z,3.3
2022-12-28T07:59:02.114Z,3.3
2022-12-28T08:00:02.100Z,3.3
2022-12-28T08:01:02.252Z,3.3
2022-12-28T08:02:02.211Z,3.3
2022-12-28T08:03:02.117Z,3.3
2022-12-28T08:04:02.176Z,3.3
2022-12-28T08:05:02.097Z,3.3
2022-12-28T08:06:02.117Z,3.4
2022-12-28T08:07:02.127Z,3.3
2022-12-28T08:08:03.866Z,3.4
2022-12-28T08:09:02.117Z,3.4
2022-12-28T08:10:02.105Z,3.4
2022-12-28T08:11:02.122Z,3.4
2022-12-28T08:12:02.128Z,3.4
2022-12-28T08:13:02.106Z,3.4
2022-12-28T08:14:02.118Z,3.4
2022-12-28T08:15:02.117Z,3.4
2022-12-28T08:16:02.163Z,3.5
2022-12-28T08:17:02.129Z,3.5
2022-12-28T08:18:02.129Z,3.5
2022-12-28T08:19:02.115Z,3.5
2022-12-28T08:20:02.110Z,3.5
2022-12-28T08:21:00.523Z,3.5
2022-12-28T08:22:00.541Z,3.4
2022-12-28T08:23:00.555Z,3.4
2022-12-28T08:24:00.525Z,3.4
2022-12-28T08:25:00.530Z,3.4
2022-12-28T08:26:00.530Z,3.4
2022-12-28T08:27:00.555Z,3.5
2022-12-28T08:28:00.568Z,3.5
2022-12-28T08:29:00.538Z,3.5
2022-12-28T08:30:00.570Z,3.5
2022-12-28T08:31:00.557Z,3.5
2022-12-28T08:32:00.576Z,3.5
2022-12-28T08:33:00.554Z,3.5
2022-12-28T08:34:00.547Z,3.5
2022-12-28T08:35:00.540Z,3.5
2022-12-28T08:36:00.545Z,3.5
2022-12-28T08:37:00.563Z,3.6
2022-12-28T08:38:00.547Z,3.6
2022-12-28T08:39:00.535Z,3.6
2022-12-28T08:40:00.575Z,3.6
2022-12-28T08:41:00.546Z,3.6
2022-12-28T08:42:00.565Z,3.6
2022-12-28T08:43:00.543Z,3.6
2022-12-28T08:44:00.592Z,3.6
2022-12-28T08:45:00.550Z,3.6
2022-12-28T08:46:00.754Z,3.6
2022-12-28T08:47:00.633Z,3.6
2022-12-28T08:48:00.564Z,3.7
2022-12-28T08:49:00.592Z,3.7
2022-12-28T08:50:00.570Z,3.8
2022-12-28T08:51:00.558Z,3.8
2022-12-28T08:52:00.584Z,3.8
2022-12-28T08:53:00.551Z,3.8
2022-12-28T08:54:00.590Z,3.8
2022-12-28T08:55:00.591Z,3.8
2022-12-28T08:56:06.259Z,3.8
2022-12-28T08:57:00.587Z,3.9
2022-12-28T08:58:00.556Z,3.8
2022-12-28T08:59:00.584Z,3.8
2022-12-28T09:00:00.571Z,3.9
2022-12-28T09:01:00.640Z,3.9
2022-12-28T09:02:00.614Z,3.9
2022-12-28T09:03:00.668Z,3.9
2022-12-28T09:04:00.596Z,3.9
2022-12-28T09:05:00.565Z,3.9
2022-12-28T09:06:00.569Z,4
2022-12-28T09:07:00.590Z,4
2022-12-28T09:08:00.600Z,4.1
2022-12-28T09:09:06.020Z,4.1
2022-12-28T09:10:00.658Z,4.1
2022-12-28T09:11:00.583Z,4.2
2022-12-28T09:12:00.593Z,4.2
2022-12-28T09:13:00.601Z,4.2
2022-12-28T09:14:00.609Z,4.2
2022-12-28T09:15:00.626Z,4.2
2022-12-28T09:16:00.663Z,4.3
2022-12-28T09:17:00.609Z,4.3
2022-12-28T09:18:00.593Z,4.4
2022-12-28T09:19:00.630Z,4.4
2022-12-28T09:20:00.662Z,4.4
2022-12-28T09:21:00.594Z,4.5
2022-12-28T09:22:00.617Z,4.6
2022-12-28T09:23:00.593Z,4.6
2022-12-28T09:24:00.627Z,4.6
2022-12-28T09:25:00.589Z,4.6
2022-12-28T09:26:00.588Z,4.7
2022-12-28T09:27:00.620Z,4.7
2022-12-28T09:28:00.590Z,4.8
2022-12-28T09:29:00.617Z,4.8
2022-12-28T09:30:00.601Z,4.8
2022-12-28T09:31:00.605Z,4.8
2022-12-28T09:32:00.616Z,4.8
2022-12-28T09:33:00.590Z,4.9
2022-12-28T09:35:00.603Z,4.9
2022-12-28T09:36:00.609Z,4.9
2022-12-28T09:37:00.628Z,4.9
2022-12-28T09:38:00.618Z,5
2022-12-28T09:39:00.638Z,5
2022-12-28T09:40:01.696Z,4.9
2022-12-28T09:41:00.633Z,4.9
2022-12-28T09:42:00.624Z,4.9
2022-12-28T09:43:00.613Z,4.9
2022-12-28T09:44:00.615Z,4.9
2022-12-28T09:45:00.672Z,4.9
2022-12-28T09:46:00.613Z,4.9
2022-12-28T09:47:00.727Z,4.9
2022-12-28T09:48:00.624Z,4.9
2022-12-28T09:49:00.636Z,4.9
2022-12-28T09:50:00.629Z,4.9
2022-12-28T09:51:00.622Z,4.9
2022-12-28T09:52:00.640Z,4.9
2022-12-28T09:53:00.629Z,4.9
2022-12-28T09:54:00.684Z,4.9
2022-12-28T09:55:00.664Z,4.9
2022-12-28T09:56:00.626Z,4.9
2022-12-28T09:57:00.658Z,4.9
2022-12-28T09:58:00.620Z,4.9
2022-12-28T09:59:00.644Z,4.9
2022-12-28T10:00:00.629Z,4.9
2022-12-28T10:01:00.696Z,4.9
2022-12-28T10:02:00.817Z,4.9
2022-12-28T10:03:00.744Z,4.9
2022-12-28T10:04:00.659Z,4.9
2022-12-28T10:05:00.630Z,5
2022-12-28T10:06:00.639Z,5
2022-12-28T10:07:00.691Z,5
2022-12-28T10:08:00.654Z,5.1
2022-12-28T10:09:00.645Z,5.1
2022-12-28T10:10:00.644Z,5.1
2022-12-28T10:11:00.673Z,5.1
2022-12-28T10:12:00.672Z,5.1
2022-12-28T10:13:00.646Z,5.1
2022-12-28T10:14:00.703Z,5.1
2022-12-28T10:15:00.708Z,5.1
2022-12-28T10:16:00.734Z,5.2
2022-12-28T10:17:00.677Z,5.2
2022-12-28T10:18:00.661Z,5.2
2022-12-28T10:19:00.678Z,5.2
2022-12-28T10:20:00.661Z,5.2
2022-12-28T10:21:00.669Z,5.2
2022-12-28T10:22:00.677Z,5.2
2022-12-28T10:23:00.656Z,5.2
2022-12-28T10:24:31.712Z,5.2
2022-12-28T10:25:00.658Z,5.3
2022-12-28T10:26:00.673Z,5.3
2022-12-28T10:27:00.662Z,5.4
2022-12-28T10:28:00.650Z,5.4
2022-12-28T10:29:00.688Z,5.4
2022-12-28T10:30:00.833Z,5.4
2022-12-28T10:31:00.764Z,5.4
2022-12-28T10:32:00.837Z,5.4
2022-12-28T10:33:03.424Z,5.4
2022-12-28T10:34:00.779Z,5.4
2022-12-28T10:35:00.695Z,5.4
2022-12-28T10:36:00.789Z,5.5
2022-12-28T10:37:00.818Z,5.5
2022-12-28T10:38:00.800Z,5.5
2022-12-28T10:39:00.758Z,5.5
2022-12-28T10:40:00.833Z,5.6
2022-12-28T10:41:00.783Z,5.6
2022-12-28T10:42:00.783Z,5.6
2022-12-28T10:43:03.088Z,5.6
2022-12-28T10:44:37.316Z,5.6
2022-12-28T10:45:00.756Z,5.6
2022-12-28T10:46:00.827Z,5.7
2022-12-28T10:47:00.779Z,5.7
2022-12-28T10:48:00.765Z,5.7
2022-12-28T10:49:00.809Z,5.8
2022-12-28T10:50:37.107Z,5.8
2022-12-28T10:51:00.830Z,5.8
2022-12-28T10:52:00.849Z,5.8
2022-12-28T10:53:00.768Z,5.9
2022-12-28T10:54:00.824Z,5.9
2022-12-28T10:55:08.092Z,5.9
2022-12-28T10:56:00.762Z,5.9
2022-12-28T10:57:00.697Z,6
2022-12-28T10:58:28.553Z,6
2022-12-28T10:59:00.704Z,6
2022-12-28T11:00:00.740Z,6
2022-12-28T11:01:00.915Z,6
2022-12-28T11:02:00.858Z,6
2022-12-28T11:03:00.886Z,6
2022-12-28T11:04:00.734Z,6.1
2022-12-28T11:05:00.687Z,6.1
2022-12-28T11:06:00.730Z,6
2022-12-28T11:07:00.718Z,6.1
2022-12-28T11:08:00.687Z,6.1
2022-12-28T11:09:00.730Z,6.1
2022-12-28T11:10:00.719Z,6.2
2022-12-28T11:11:00.705Z,6.2
2022-12-28T11:12:00.716Z,6.2
2022-12-28T11:13:00.690Z,6.2
2022-12-28T11:14:00.734Z,6.2
2022-12-28T11:15:00.695Z,6.2
2022-12-28T11:16:00.806Z,6.3
2022-12-28T11:17:00.697Z,6.3
2022-12-28T11:18:00.708Z,6.3
2022-12-28T11:19:00.730Z,6.4
2022-12-28T11:20:00.709Z,6.4
2022-12-28T11:21:00.700Z,6.4
2022-12-28T11:22:00.736Z,6.5
2022-12-28T11:23:00.706Z,6.4
2022-12-28T11:24:00.727Z,6.5
2022-12-28T11:25:00.736Z,6.6
2022-12-28T11:26:00.707Z,6.6
2022-12-28T11:27:00.704Z,6.6
2022-12-28T11:28:00.707Z,6.7
2022-12-28T11:29:00.729Z,6.8
2022-12-28T11:30:00.751Z,6.8
2022-12-28T11:31:00.720Z,6.8
2022-12-28T11:32:00.817Z,6.8
2022-12-28T11:33:00.726Z,6.8
2022-12-28T11:34:00.743Z,6.7
2022-12-28T11:35:00.717Z,6.7
2022-12-28T11:36:02.547Z,6.6
2022-12-28T11:37:00.743Z,6.6
2022-12-28T11:38:00.740Z,6.6
2022-12-28T11:39:00.744Z,6.6
2022-12-28T11:40:00.777Z,6.6
2022-12-28T11:41:00.739Z,6.5
2022-12-28T11:42:37.078Z,6.5
2022-12-28T11:43:00.736Z,6.5
2022-12-28T11:44:00.770Z,6.4
2022-12-28T11:45:00.745Z,6.4
2022-12-28T11:46:00.759Z,6.4
2022-12-28T11:47:00.755Z,6.4
2022-12-28T11:48:00.743Z,6.4
2022-12-28T11:49:00.802Z,6.4
2022-12-28T11:50:00.744Z,6.4
2022-12-28T11:51:00.773Z,6.4
2022-12-28T11:52:00.752Z,6.4
2022-12-28T11:53:00.741Z,6.4
2022-12-28T11:54:00.766Z,6.4
2022-12-28T11:55:00.754Z,6.4
2022-12-28T11:56:00.779Z,6.4
2022-12-28T11:57:00.752Z,6.4
2022-12-28T11:58:00.785Z,6.4
2022-12-28T11:59:00.768Z,6.4
2022-12-28T12:00:00.769Z,6.3
2022-12-28T12:01:00.821Z,6.3
2022-12-28T12:02:00.840Z,6.3
2022-12-28T12:03:00.874Z,6.3
2022-12-28T12:04:00.783Z,6.3
2022-12-28T12:05:00.761Z,6.3
2022-12-28T12:06:00.783Z,6.2
2022-12-28T12:07:00.761Z,6.2
2022-12-28T12:08:00.759Z,6.2
2022-12-28T12:09:00.776Z,6.2
2022-12-28T12:10:00.778Z,6.2
2022-12-28T12:11:00.768Z,6.1
2022-12-28T12:12:00.783Z,6.1
2022-12-28T12:13:00.768Z,6.1
2022-12-28T12:14:00.789Z,6.1
2022-12-28T12:15:00.765Z,6.1
2022-12-28T12:16:00.765Z,6.1
2022-12-28T12:17:00.853Z,6.1
2022-12-28T12:18:00.779Z,6.1
2022-12-28T12:19:00.797Z,6.1
2022-12-28T12:20:00.778Z,6.1
2022-12-28T12:21:00.794Z,6.1
2022-12-28T12:22:00.782Z,6.1
2022-12-28T12:23:00.768Z,6.1
2022-12-28T12:24:00.824Z,6.1
2022-12-28T12:25:00.775Z,6.1
2022-12-28T12:26:00.782Z,6.1
2022-12-28T12:27:00.808Z,6.1
2022-12-28T12:28:00.782Z,6.1
2022-12-28T12:29:00.812Z,6.2
2022-12-28T12:30:00.826Z,6.2
2022-12-28T12:31:00.837Z,6.2
2022-12-28T12:32:00.796Z,6.2
2022-12-28T12:33:00.789Z,6.2
2022-12-28T12:34:00.821Z,6.2
2022-12-28T12:35:00.820Z,6.2
2022-12-28T12:36:00.780Z,6.3
2022-12-28T12:37:00.803Z,6.3
2022-12-28T12:38:00.789Z,6.3
2022-12-28T12:39:00.810Z,6.3
2022-12-28T12:40:00.820Z,6.3
2022-12-28T12:41:00.784Z,6.3
2022-12-28T12:42:00.785Z,6.3
2022-12-28T12:43:00.811Z,6.3
2022-12-28T12:44:00.831Z,6.3
2022-12-28T12:45:00.795Z,6.4
2022-12-28T12:46:00.851Z,6.4
2022-12-28T12:47:05.435Z,6.4
2022-12-28T12:48:00.824Z,6.4
2022-12-28T12:49:00.858Z,6.4
2022-12-28T12:50:00.820Z,6.4
2022-12-28T12:51:00.822Z,6.4
2022-12-28T12:52:00.800Z,6.4
2022-12-28T12:53:00.830Z,6.4
2022-12-28T12:54:00.833Z,6.4
2022-12-28T12:55:00.813Z,6.5
2022-12-28T12:56:00.806Z,6.5
2022-12-28T12:57:00.844Z,6.6
2022-12-28T12:58:00.832Z,6.6
2022-12-28T12:59:00.845Z,6.6
2022-12-28T13:00:00.845Z,6.6
2022-12-28T13:01:00.957Z,6.6
2022-12-28T13:02:00.950Z,6.6
2022-12-28T13:03:00.897Z,6.6
2022-12-28T13:04:00.842Z,6.6
2022-12-28T13:05:00.832Z,6.7
2022-12-28T13:06:00.819Z,6.7
2022-12-28T13:07:00.817Z,6.7
2022-12-28T13:08:00.835Z,6.8
2022-12-28T13:09:05.342Z,6.7
2022-12-28T13:10:00.818Z,6.8
2022-12-28T13:11:00.839Z,6.8
2022-12-28T13:12:00.815Z,6.8
2022-12-28T13:13:00.830Z,6.8
2022-12-28T13:14:00.849Z,6.8
2022-12-28T13:15:00.839Z,6.8
2022-12-28T13:16:00.983Z,6.8
2022-12-28T13:17:00.849Z,6.8
2022-12-28T13:18:18.193Z,6.9
2022-12-28T13:19:00.889Z,6.8
2022-12-28T13:20:00.859Z,6.8
2022-12-28T13:21:00.846Z,6.9
2022-12-28T13:22:00.848Z,6.9
2022-12-28T13:23:00.863Z,6.9
2022-12-28T13:24:00.850Z,6.9
2022-12-28T13:25:00.877Z,6.9
2022-12-28T13:26:00.855Z,6.9
2022-12-28T13:27:00.825Z,6.9
2022-12-28T13:28:00.840Z,6.9
2022-12-28T13:29:00.920Z,6.9
2022-12-28T13:30:00.842Z,7
2022-12-28T13:31:00.915Z,7
2022-12-28T13:32:00.838Z,7.1
2022-12-28T13:33:00.835Z,7.1
2022-12-28T13:34:00.877Z,7.1
2022-12-28T13:35:00.880Z,7.1
2022-12-28T13:36:00.844Z,7.2
2022-12-28T13:37:00.843Z,7.2
2022-12-28T13:38:00.843Z,7.2
2022-12-28T13:39:00.868Z,7.2
2022-12-28T13:40:00.849Z,7.2
2022-12-28T13:41:00.845Z,7.2
2022-12-28T13:42:00.876Z,7.2
2022-12-28T13:43:00.847Z,7.2
2022-12-28T13:44:00.884Z,7.2
2022-12-28T13:45:00.867Z,7.2
2022-12-28T13:46:00.873Z,7.2
2022-12-28T13:47:00.953Z,7.2
2022-12-28T13:48:00.865Z,7.2
2022-12-28T13:49:00.888Z,7.1
2022-12-28T13:50:00.853Z,7.2